createdAt,value
2024-03-07T00:00:17.974Z,97804.88
2024-03-07T00:02:46.274Z,97811.06
2024-03-07T00:05:16.986Z,97806.72
2024-03-07T00:07:43.976Z,97803.03
2024-03-07T00:10:11.307Z,97800.34
2024-03-07T00:12:42.043Z,97806.91
2024-03-07T00:15:10.088Z,97800.50
2024-03-07T00:17:36.801Z,97794.34
2024-03-07T00:20:10.654Z,97799.50
2024-03-07T00:22:37.709Z,97798.88
2024-03-07T00:25:06.537Z,97800.50
2024-03-07T00:27:33.718Z,97799.03
2024-03-07T00:30:00.693Z,97805.63
2024-03-07T00:32:31.029Z,97810.13
2024-03-07T00:35:00.645Z,97807.03
2024-03-07T00:37:27.208Z,97808.28
2024-03-07T00:39:53.701Z,97798.97
2024-03-07T00:42:20.241Z,97803.25
2024-03-07T00:44:47.727Z,97807.53
2024-03-07T00:47:14.244Z,97809.13
2024-03-07T00:49:41.185Z,97801.94
2024-03-07T00:52:07.734Z,97801.44
2024-03-07T00:54:34.251Z,97798.28
2024-03-07T00:57:00.851Z,97804.59
2024-03-07T00:59:27.374Z,97794.25
2024-03-07T01:01:54.096Z,97788.03
2024-03-07T01:04:20.647Z,97792.56
2024-03-07T01:06:47.163Z,97780.38
2024-03-07T01:09:17.842Z,97775.81
2024-03-07T01:11:46.271Z,97779.34
2024-03-07T01:14:14.489Z,97771.97
2024-03-07T01:16:41.070Z,97766.94
2024-03-07T01:19:08.478Z,97776.44
2024-03-07T01:21:39.085Z,97770.22
2024-03-07T01:24:06.834Z,97766.88
2024-03-07T01:26:34.756Z,97761.91
2024-03-07T01:29:01.638Z,97766.00
2024-03-07T01:31:28.796Z,97756.91
2024-03-07T01:33:55.774Z,97758.50
2024-03-07T01:36:22.806Z,97756.84
2024-03-07T01:38:49.667Z,97755.38
2024-03-07T01:41:16.539Z,97756.34
2024-03-07T01:43:43.579Z,97749.91
2024-03-07T01:46:11.266Z,97756.28
2024-03-07T01:48:38.881Z,97750.50
2024-03-07T01:51:05.668Z,97749.03
2024-03-07T01:53:33.028Z,97749.97
2024-03-07T01:56:03.883Z,97751.66
2024-03-07T01:58:31.329Z,97741.72
2024-03-07T02:00:59.149Z,97743.56
2024-03-07T02:03:25.845Z,97741.09
2024-03-07T02:05:52.338Z,97736.75
2024-03-07T02:08:20.709Z,97736.31
2024-03-07T02:10:47.539Z,97741.59
2024-03-07T02:13:14.114Z,97738.84
2024-03-07T02:15:40.553Z,97731.56
2024-03-07T02:18:07.411Z,97732.16
2024-03-07T02:20:34.017Z,97722.31
2024-03-07T02:23:00.512Z,97730.00
2024-03-07T02:25:26.985Z,97726.13
2024-03-07T02:27:53.488Z,97725.69
2024-03-07T02:30:20.125Z,97722.00
2024-03-07T02:33:08.585Z,97723.50
2024-03-07T02:35:38.334Z,97730.19
2024-03-07T02:38:06.243Z,97731.72
2024-03-07T02:40:32.804Z,97735.75
2024-03-07T02:42:59.602Z,97733.88
2024-03-07T02:45:26.752Z,97738.72
2024-03-07T02:47:54.831Z,97742.25
2024-03-07T02:50:22.966Z,97741.69
2024-03-07T02:52:50.695Z,97744.84
2024-03-07T02:55:17.193Z,97736.91
2024-03-07T02:57:43.689Z,97745.44
2024-03-07T03:00:28.121Z,97749.84
2024-03-07T03:02:55.210Z,97761.25
2024-03-07T03:05:21.989Z,97765.47
2024-03-07T03:07:55.156Z,97762.84
2024-03-07T03:10:21.806Z,97757.88
2024-03-07T03:12:48.417Z,97758.44
2024-03-07T03:15:16.075Z,97764.09
2024-03-07T03:17:42.970Z,97758.16
2024-03-07T03:20:25.287Z,97789.00
2024-03-07T03:23:07.297Z,97778.72
2024-03-07T03:25:40.638Z,97789.00
2024-03-07T03:28:07.580Z,97790.66
2024-03-07T03:30:34.196Z,97774.28
2024-03-07T03:33:01.504Z,97766.81
2024-03-07T03:35:28.019Z,97778.41
2024-03-07T03:37:54.515Z,97787.88
2024-03-07T03:40:21.009Z,97789.38
2024-03-07T03:42:47.523Z,97774.78
2024-03-07T03:45:15.613Z,97773.28
2024-03-07T03:47:43.650Z,97777.25
2024-03-07T03:50:12.526Z,97786.69
2024-03-07T03:52:39.697Z,97779.91
2024-03-07T03:55:06.776Z,97772.44
2024-03-07T03:57:34.350Z,97757.50
2024-03-07T04:00:01.010Z,97750.56
2024-03-07T04:02:27.557Z,97752.91
2024-03-07T04:04:54.656Z,97758.25
2024-03-07T04:07:21.920Z,97761.91
2024-03-07T04:09:49.004Z,97773.16
2024-03-07T04:12:16.503Z,97772.84
2024-03-07T04:14:44.409Z,97764.59
2024-03-07T04:17:14.822Z,97758.09
2024-03-07T04:19:42.912Z,97766.22
2024-03-07T04:22:09.930Z,97783.97
2024-03-07T04:24:36.741Z,97775.88
2024-03-07T04:27:07.388Z,97760.59
2024-03-07T04:29:35.039Z,97764.91
2024-03-07T04:32:02.569Z,97772.03
2024-03-07T04:34:31.744Z,97769.56
2024-03-07T04:36:59.868Z,97769.38
2024-03-07T04:39:33.577Z,97773.03
2024-03-07T04:42:04.164Z,97766.75
2024-03-07T04:44:31.589Z,97774.38
2024-03-07T04:47:00.011Z,97768.25
2024-03-07T04:49:28.678Z,97762.25
2024-03-07T04:51:57.621Z,97768.56
2024-03-07T04:54:25.401Z,97777.19
2024-03-07T04:56:53.291Z,97774.53
2024-03-07T04:59:20.693Z,97788.81
2024-03-07T05:01:48.310Z,97795.16
2024-03-07T05:04:16.072Z,97776.38
2024-03-07T05:06:42.765Z,97767.72
2024-03-07T05:09:10.766Z,97769.91
2024-03-07T05:11:37.881Z,97776.22
2024-03-07T05:14:04.593Z,97772.88
2024-03-07T05:16:35.235Z,97765.56
2024-03-07T05:19:01.995Z,97769.91
2024-03-07T05:21:34.090Z,97774.72
2024-03-07T05:24:01.767Z,97780.84
2024-03-07T05:26:28.414Z,97778.38
2024-03-07T05:28:57.939Z,97769.41
2024-03-07T05:31:24.692Z,97773.88
2024-03-07T05:33:51.451Z,97776.69
2024-03-07T05:36:17.944Z,97775.03
2024-03-07T05:38:44.587Z,97776.34
2024-03-07T05:41:13.404Z,97780.66
2024-03-07T05:43:40.891Z,97769.69
2024-03-07T05:46:12.031Z,97780.50
2024-03-07T05:48:38.552Z,97780.50
2024-03-07T05:51:05.452Z,97772.19
2024-03-07T05:53:32.074Z,97775.34
2024-03-07T05:55:58.592Z,97768.03
2024-03-07T05:58:25.084Z,97761.38
2024-03-07T06:00:51.932Z,97767.72
2024-03-07T06:03:21.517Z,97775.69
2024-03-07T06:05:49.274Z,97774.84
2024-03-07T06:08:19.429Z,97767.56
2024-03-07T06:10:46.455Z,97765.06
2024-03-07T06:13:13.664Z,97751.78
2024-03-07T06:15:40.873Z,97759.91
2024-03-07T06:18:12.195Z,97757.56
2024-03-07T06:20:39.404Z,97756.72
2024-03-07T06:23:06.395Z,97754.78
2024-03-07T06:25:48.674Z,97765.56
2024-03-07T06:28:15.370Z,97757.75
2024-03-07T06:30:44.055Z,97759.09
2024-03-07T06:33:11.280Z,97748.78
2024-03-07T06:35:39.556Z,97764.25
2024-03-07T06:38:12.085Z,97748.00
2024-03-07T06:40:41.316Z,97744.66
2024-03-07T06:43:08.415Z,97743.50
2024-03-07T06:45:35.056Z,97740.03
2024-03-07T06:48:02.076Z,97735.34
2024-03-07T06:50:36.545Z,97737.00
2024-03-07T06:53:07.699Z,97735.84
2024-03-07T06:55:37.538Z,97733.53
2024-03-07T06:58:07.389Z,97736.34
2024-03-07T07:00:37.083Z,97727.53
2024-03-07T07:03:07.357Z,97730.84
2024-03-07T07:05:35.012Z,97731.84
2024-03-07T07:08:02.223Z,97727.69
2024-03-07T07:10:28.948Z,97733.31
2024-03-07T07:12:56.300Z,97731.66
2024-03-07T07:15:23.245Z,97742.25
2024-03-07T07:17:51.054Z,97731.28
2024-03-07T07:20:18.440Z,97738.38
2024-03-07T07:22:50.673Z,97739.81
2024-03-07T07:25:17.805Z,97757.66
2024-03-07T07:27:48.506Z,97742.06
2024-03-07T07:30:20.107Z,97743.56
2024-03-07T07:32:47.036Z,97713.75
2024-03-07T07:35:13.764Z,97682.63
2024-03-07T07:37:41.329Z,97675.53
2024-03-07T07:40:09.845Z,97664.00
2024-03-07T07:42:39.705Z,97657.31
2024-03-07T07:45:08.229Z,97655.09
2024-03-07T07:47:38.631Z,97649.03
2024-03-07T07:50:13.764Z,97646.09
2024-03-07T07:52:54.520Z,97639.66
2024-03-07T07:55:22.445Z,97648.25
2024-03-07T07:57:53.585Z,97639.03
2024-03-07T08:00:25.107Z,97641.97
2024-03-07T08:02:53.739Z,97638.56
2024-03-07T08:05:24.045Z,97642.00
2024-03-07T08:07:52.006Z,97632.88
2024-03-07T08:10:20.037Z,97633.19
2024-03-07T08:12:46.632Z,97633.22
2024-03-07T08:15:17.037Z,97633.72
2024-03-07T08:17:44.965Z,97635.28
2024-03-07T08:20:16.107Z,97629.22
2024-03-07T08:22:44.040Z,97627.56
2024-03-07T08:25:11.805Z,97635.06
2024-03-07T08:27:39.552Z,97629.28
2024-03-07T08:30:13.993Z,97634.25
2024-03-07T08:32:45.434Z,97633.63
2024-03-07T08:35:12.735Z,97638.38
2024-03-07T08:37:40.653Z,97631.06
2024-03-07T08:40:11.964Z,97624.63
2024-03-07T08:42:38.890Z,97631.47
2024-03-07T08:45:06.279Z,97627.53
2024-03-07T08:47:34.079Z,97631.66
2024-03-07T08:50:01.626Z,97627.41
2024-03-07T08:52:28.832Z,97636.63
2024-03-07T08:54:56.016Z,97625.72
2024-03-07T08:57:23.145Z,97627.25
2024-03-07T08:59:49.848Z,97624.91
2024-03-07T09:02:17.274Z,97618.19
2024-03-07T09:04:43.926Z,97620.41
2024-03-07T09:07:10.681Z,97613.38
2024-03-07T09:09:37.204Z,97621.06
2024-03-07T09:12:04.192Z,97621.38
2024-03-07T09:14:30.828Z,97628.13
2024-03-07T09:16:58.161Z,97619.50
2024-03-07T09:19:28.317Z,97612.88
2024-03-07T09:21:55.438Z,97609.09
2024-03-07T09:24:24.862Z,97614.63
2024-03-07T09:26:53.063Z,97605.75
2024-03-07T09:29:20.792Z,97604.34
2024-03-07T09:31:50.169Z,97601.22
2024-03-07T09:34:17.457Z,97607.22
2024-03-07T09:36:43.983Z,97600.13
2024-03-07T09:39:10.582Z,97599.97
2024-03-07T09:41:37.689Z,97602.63
2024-03-07T09:44:05.532Z,97597.47
2024-03-07T09:46:33.169Z,97593.16
2024-03-07T09:48:59.771Z,97600.41
2024-03-07T09:51:28.536Z,97587.81
2024-03-07T09:53:59.158Z,97588.84
2024-03-07T09:56:28.126Z,97589.03
2024-03-07T09:58:58.219Z,97587.81
2024-03-07T10:01:27.243Z,97589.25
2024-03-07T10:03:59.477Z,97595.47
2024-03-07T10:06:28.130Z,97594.63
2024-03-07T10:08:54.659Z,97590.09
2024-03-07T10:11:21.988Z,97594.81
2024-03-07T10:13:50.227Z,97590.09
2024-03-07T10:16:18.554Z,97595.25
2024-03-07T10:18:47.045Z,97594.22
2024-03-07T10:21:20.620Z,97592.38
2024-03-07T10:23:48.487Z,97592.16
2024-03-07T10:26:17.125Z,97595.66
2024-03-07T10:28:44.000Z,97591.75
2024-03-07T10:31:12.532Z,97586.16
2024-03-07T10:33:41.204Z,97587.81
2024-03-07T10:36:11.332Z,97583.09
2024-03-07T10:38:38.633Z,97576.91
2024-03-07T10:41:09.251Z,97574.81
2024-03-07T10:43:41.606Z,97565.94
2024-03-07T10:46:11.408Z,97568.19
2024-03-07T10:48:40.631Z,97571.50
2024-03-07T10:51:31.237Z,97576.06
2024-03-07T10:54:18.954Z,97561.81
2024-03-07T10:57:06.472Z,97564.03
2024-03-07T10:59:35.350Z,97564.03
2024-03-07T11:02:20.892Z,97559.88
2024-03-07T11:04:50.617Z,97559.69
2024-03-07T11:07:17.401Z,97566.69
2024-03-07T11:09:46.910Z,97551.66
2024-03-07T11:12:14.176Z,97560.44
2024-03-07T11:14:41.577Z,97549.19
2024-03-07T11:17:10.548Z,97549.41
2024-03-07T11:19:40.651Z,97556.34
2024-03-07T11:22:16.704Z,97549.88
2024-03-07T11:24:43.995Z,97547.00
2024-03-07T11:27:14.860Z,97554.25
2024-03-07T11:29:48.893Z,97546.34
2024-03-07T11:32:16.363Z,97538.50
2024-03-07T11:34:47.238Z,97538.50
2024-03-07T11:37:44.456Z,97527.81
2024-03-07T11:40:19.498Z,97530.59
2024-03-07T11:42:50.277Z,97527.78
2024-03-07T11:45:25.948Z,97527.06
2024-03-07T11:48:10.865Z,97521.91
2024-03-07T11:50:41.706Z,97522.84
2024-03-07T11:53:10.112Z,97516.50
2024-03-07T11:55:47.215Z,97508.16
2024-03-07T11:58:24.136Z,97515.28
2024-03-07T12:00:52.643Z,97506.00
2024-03-07T12:03:25.788Z,97500.44
2024-03-07T12:05:53.479Z,97500.03
2024-03-07T12:08:24.033Z,97505.66
2024-03-07T12:10:55.043Z,97498.19
2024-03-07T12:13:21.828Z,97498.19
2024-03-07T12:15:48.448Z,97497.72
2024-03-07T12:18:15.360Z,97492.88
2024-03-07T12:20:43.780Z,97495.78
2024-03-07T12:23:10.419Z,97494.59
2024-03-07T12:25:37.413Z,97493.19
2024-03-07T12:28:18.163Z,97498.31
2024-03-07T12:30:47.935Z,97488.91
2024-03-07T12:33:21.377Z,97488.63
2024-03-07T12:35:51.143Z,97483.50
2024-03-07T12:38:18.513Z,97487.97
2024-03-07T12:40:47.150Z,97491.75
2024-03-07T12:43:22.980Z,97479.59
2024-03-07T12:45:53.578Z,97479.88
2024-03-07T12:48:22.487Z,97483.75
2024-03-07T12:50:54.559Z,97479.31
2024-03-07T12:53:23.096Z,97481.41
2024-03-07T12:55:50.006Z,97481.13
2024-03-07T12:58:16.652Z,97480.53
2024-03-07T13:00:44.715Z,97478.00
2024-03-07T13:03:11.562Z,97481.06
2024-03-07T13:05:41.660Z,97475.09
2024-03-07T13:08:17.745Z,97478.78
2024-03-07T13:10:45.023Z,97477.28
2024-03-07T13:13:12.492Z,97477.81
2024-03-07T13:15:40.309Z,97469.88
2024-03-07T13:18:08.281Z,97466.91
2024-03-07T13:20:34.892Z,97471.06
2024-03-07T13:23:02.149Z,97470.59
2024-03-07T13:25:33.636Z,97471.19
2024-03-07T13:28:08.625Z,97471.59
2024-03-07T13:30:37.167Z,97470.28
2024-03-07T13:33:04.705Z,97469.16
2024-03-07T13:35:31.396Z,97459.97
2024-03-07T13:37:58.064Z,97470.56
2024-03-07T13:40:26.291Z,97470.72
2024-03-07T13:42:57.556Z,97465.84
2024-03-07T13:45:28.137Z,97463.00
2024-03-07T13:47:55.870Z,97462.78
2024-03-07T13:50:40.669Z,97462.03
2024-03-07T13:53:30.155Z,97461.00
2024-03-07T13:56:30.029Z,97456.72
2024-03-07T13:59:05.545Z,97452.13
2024-03-07T14:02:13.539Z,97462.72
2024-03-07T14:05:14.498Z,97456.41
2024-03-07T14:08:29.662Z,97451.31
2024-03-07T14:11:32.950Z,97456.56
2024-03-07T14:14:23.116Z,97444.38
2024-03-07T14:17:40.525Z,97447.72
2024-03-07T14:20:47.059Z,97446.16
2024-03-07T14:23:19.435Z,97430.63
2024-03-07T14:26:28.548Z,97436.59
2024-03-07T14:29:20.352Z,97439.66
2024-03-07T14:31:50.469Z,97429.25
2024-03-07T14:34:28.952Z,97431.28
2024-03-07T14:37:03.571Z,97430.91
2024-03-07T14:39:30.424Z,97429.09
2024-03-07T14:42:00.067Z,97433.84
2024-03-07T14:44:27.888Z,97426.59
2024-03-07T14:46:59.402Z,97428.00
2024-03-07T14:49:26.065Z,97423.97
2024-03-07T14:52:00.044Z,97420.28
2024-03-07T14:54:28.916Z,97416.88
2024-03-07T14:56:55.953Z,97413.00
2024-03-07T14:59:22.982Z,97417.94
2024-03-07T15:01:50.183Z,97405.97
2024-03-07T15:04:16.825Z,97408.78
2024-03-07T15:06:45.172Z,97401.91
2024-03-07T15:09:11.741Z,97403.41
2024-03-07T15:11:41.528Z,97399.97
2024-03-07T15:14:11.741Z,97399.16
2024-03-07T15:16:39.981Z,97389.44
2024-03-07T15:19:13.823Z,97394.84
2024-03-07T15:21:40.644Z,97396.56
2024-03-07T15:24:07.745Z,97397.09
2024-03-07T15:26:35.891Z,97394.38
2024-03-07T15:29:02.617Z,97389.97
2024-03-07T15:31:29.819Z,97403.34
2024-03-07T15:33:56.955Z,97392.94
2024-03-07T15:36:23.986Z,97396.34
2024-03-07T15:38:50.963Z,97384.94
2024-03-07T15:41:17.838Z,97386.31
2024-03-07T15:43:44.479Z,97386.41
2024-03-07T15:46:17.056Z,97389.53
2024-03-07T15:48:46.765Z,97380.09
2024-03-07T15:51:13.407Z,97382.00
2024-03-07T15:53:41.820Z,97381.09
2024-03-07T15:56:08.713Z,97382.06
2024-03-07T15:58:35.475Z,97383.84
2024-03-07T16:01:03.104Z,97382.34
2024-03-07T16:03:29.748Z,97378.41
2024-03-07T16:05:57.852Z,97372.81
2024-03-07T16:08:24.841Z,97364.06
2024-03-07T16:10:52.326Z,97371.47
2024-03-07T16:13:18.959Z,97368.00
2024-03-07T16:15:46.576Z,97368.63
2024-03-07T16:18:15.516Z,97373.25
2024-03-07T16:20:42.775Z,97373.50
2024-03-07T16:23:09.492Z,97373.28
2024-03-07T16:25:40.351Z,97369.13
2024-03-07T16:28:08.657Z,97364.81
2024-03-07T16:30:36.842Z,97355.88
2024-03-07T16:33:05.421Z,97361.91
2024-03-07T16:35:32.589Z,97363.03
2024-03-07T16:37:59.943Z,97359.00
2024-03-07T16:40:28.201Z,97364.38
2024-03-07T16:42:57.645Z,97362.41
2024-03-07T16:45:26.494Z,97364.72
2024-03-07T16:47:58.214Z,97356.88
2024-03-07T16:50:33.153Z,97367.03
2024-03-07T16:53:08.606Z,97359.13
2024-03-07T16:55:40.325Z,97357.34
2024-03-07T16:58:13.701Z,97361.19
2024-03-07T17:00:43.333Z,97352.81
2024-03-07T17:03:11.618Z,97358.19
2024-03-07T17:05:41.130Z,97350.44
2024-03-07T17:08:09.046Z,97352.13
2024-03-07T17:10:40.665Z,97357.75
2024-03-07T17:13:10.862Z,97363.63
2024-03-07T17:15:43.088Z,97361.09
2024-03-07T17:18:15.901Z,97362.19
2024-03-07T17:20:45.344Z,97358.31
2024-03-07T17:23:13.607Z,97359.78
2024-03-07T17:25:40.291Z,97368.28
2024-03-07T17:28:06.816Z,97361.06
2024-03-07T17:30:33.980Z,97365.75
2024-03-07T17:33:01.706Z,97359.16
2024-03-07T17:35:31.000Z,97356.53
2024-03-07T17:37:58.514Z,97361.91
2024-03-07T17:40:28.431Z,97350.97
2024-03-07T17:42:55.663Z,97359.06
2024-03-07T17:45:26.653Z,97351.41
2024-03-07T17:47:58.935Z,97352.63
2024-03-07T17:50:27.557Z,97368.72
2024-03-07T17:53:08.718Z,97363.00
2024-03-07T17:55:36.035Z,97361.78
2024-03-07T17:58:05.033Z,97371.69
2024-03-07T18:00:33.145Z,97367.00
2024-03-07T18:03:05.772Z,97362.22
2024-03-07T18:05:37.668Z,97365.53
2024-03-07T18:10:41.131Z,97365.09
2024-03-07T18:13:12.673Z,97356.16
2024-03-07T18:15:40.638Z,97362.78
2024-03-07T18:18:10.949Z,97363.88
2024-03-07T18:20:45.907Z,97357.03
2024-03-07T18:23:13.895Z,97352.69
2024-03-07T18:25:41.969Z,97355.84
2024-03-07T18:28:08.791Z,97348.81
2024-03-07T18:30:35.495Z,97346.34
2024-03-07T18:33:06.967Z,97341.63
2024-03-07T18:35:37.633Z,97337.94
2024-03-07T18:38:07.751Z,97344.78
2024-03-07T18:40:34.919Z,97347.03
2024-03-07T18:43:07.777Z,97340.69
2024-03-07T18:45:36.789Z,97340.47
2024-03-07T18:48:08.201Z,97343.34
2024-03-07T18:50:39.460Z,97342.97
2024-03-07T18:53:06.193Z,97336.56
2024-03-07T18:55:32.737Z,97335.31
2024-03-07T18:58:04.110Z,97346.22
2024-03-07T19:00:32.451Z,97339.59
2024-03-07T19:03:04.386Z,97336.53
2024-03-07T19:05:33.133Z,97333.25
2024-03-07T19:08:01.952Z,97331.59
2024-03-07T19:10:31.999Z,97333.00
2024-03-07T19:12:59.468Z,97327.09
2024-03-07T19:15:26.700Z,97325.22
2024-03-07T19:17:53.871Z,97319.03
2024-03-07T19:20:21.482Z,97319.25
2024-03-07T19:22:49.455Z,97319.03
2024-03-07T19:25:18.575Z,97317.94
2024-03-07T19:27:50.355Z,97312.69
2024-03-07T19:30:18.035Z,97311.63
2024-03-07T19:32:48.134Z,97315.16
2024-03-07T19:35:17.801Z,97309.22
2024-03-07T19:37:46.158Z,97321.63
2024-03-07T19:40:22.459Z,97314.03
2024-03-07T19:42:52.481Z,97313.06
2024-03-07T19:45:20.175Z,97314.94
2024-03-07T19:47:47.598Z,97317.06
2024-03-07T19:50:17.702Z,97315.25
2024-03-07T19:52:47.207Z,97309.31
2024-03-07T19:55:14.641Z,97309.75
2024-03-07T19:57:43.138Z,97304.44
2024-03-07T20:00:10.158Z,97304.84
2024-03-07T20:02:39.970Z,97297.63
2024-03-07T20:05:08.369Z,97294.50
2024-03-07T20:07:35.667Z,97290.56
2024-03-07T20:10:07.954Z,97288.25
2024-03-07T20:12:36.751Z,97301.25
2024-03-07T20:15:04.917Z,97289.34
2024-03-07T20:17:32.287Z,97293.03
2024-03-07T20:19:59.135Z,97283.94
2024-03-07T20:22:26.230Z,97288.88
2024-03-07T20:24:53.102Z,97292.75
2024-03-07T20:27:19.968Z,97294.44
2024-03-07T20:29:46.496Z,97293.22
2024-03-07T20:32:13.161Z,97284.31
2024-03-07T20:34:42.298Z,97292.09
2024-03-07T20:37:11.924Z,97289.25
2024-03-07T20:39:40.764Z,97282.69
2024-03-07T20:42:11.230Z,97280.69
2024-03-07T20:44:38.990Z,97283.97
2024-03-07T20:47:07.782Z,97290.81
2024-03-07T20:49:36.893Z,97281.94
2024-03-07T20:52:04.454Z,97281.06
2024-03-07T20:54:31.130Z,97273.03
2024-03-07T20:56:58.793Z,97279.59
2024-03-07T20:59:25.546Z,97280.50
2024-03-07T21:01:53.278Z,97273.53
2024-03-07T21:04:21.222Z,97270.00
2024-03-07T21:06:48.776Z,97277.22
2024-03-07T21:09:17.105Z,97263.88
2024-03-07T21:11:45.208Z,97265.13
2024-03-07T21:14:12.628Z,97255.88
2024-03-07T21:16:44.809Z,97264.31
2024-03-07T21:19:11.503Z,97262.47
2024-03-07T21:21:38.587Z,97263.28
2024-03-07T21:24:05.812Z,97267.03
2024-03-07T21:26:32.685Z,97272.19
2024-03-07T21:28:59.400Z,97258.81
2024-03-07T21:31:27.603Z,97267.06
2024-03-07T21:33:54.092Z,97264.59
2024-03-07T21:36:20.613Z,97262.31
2024-03-07T21:38:51.173Z,97262.53
2024-03-07T21:41:18.097Z,97260.88
2024-03-07T21:43:44.561Z,97259.63
2024-03-07T21:46:14.654Z,97253.50
2024-03-07T21:48:42.563Z,97253.06
2024-03-07T21:51:11.232Z,97258.44
2024-03-07T21:53:42.335Z,97252.06
2024-03-07T21:56:09.108Z,97245.25
2024-03-07T21:58:35.564Z,97247.13
2024-03-07T22:01:02.202Z,97251.06
2024-03-07T22:03:28.767Z,97245.47
2024-03-07T22:05:55.395Z,97242.41
2024-03-07T22:08:24.709Z,97232.13
2024-03-07T22:10:51.428Z,97241.56
2024-03-07T22:13:21.075Z,97243.44
2024-03-07T22:15:49.071Z,97240.53
2024-03-07T22:18:15.707Z,97244.66
2024-03-07T22:20:42.347Z,97242.16
2024-03-07T22:23:08.850Z,97233.72
2024-03-07T22:25:35.377Z,97227.75
2024-03-07T22:28:04.865Z,97230.91
2024-03-07T22:30:31.618Z,97229.72
2024-03-07T22:32:58.357Z,97221.81
2024-03-07T22:35:25.425Z,97223.34
2024-03-07T22:37:53.325Z,97215.41
2024-03-07T22:40:28.466Z,97222.06
2024-03-07T22:42:55.356Z,97223.44
2024-03-07T22:45:22.075Z,97217.22
2024-03-07T22:47:52.181Z,97217.72
2024-03-07T22:50:27.757Z,97209.22
2024-03-07T22:52:58.510Z,97214.59
2024-03-07T22:55:25.268Z,97206.13
2024-03-07T22:57:51.981Z,97204.84
2024-03-07T23:00:29.533Z,97199.59
2024-03-07T23:02:58.372Z,97198.75
2024-03-07T23:05:25.883Z,97198.81
2024-03-07T23:07:52.436Z,97198.06
2024-03-07T23:10:20.548Z,97184.28
2024-03-07T23:12:50.499Z,97190.88
2024-03-07T23:15:17.163Z,97186.09
2024-03-07T23:17:47.013Z,97187.47
2024-03-07T23:20:32.304Z,97180.81
2024-03-07T23:23:00.254Z,97182.16
2024-03-07T23:25:27.898Z,97190.72
2024-03-07T23:27:55.512Z,97180.31
2024-03-07T23:30:24.342Z,97174.19
2024-03-07T23:32:52.642Z,97176.25
2024-03-07T23:35:19.687Z,97170.16
2024-03-07T23:37:47.778Z,97160.97
2024-03-07T23:40:14.911Z,97162.63
2024-03-07T23:42:43.642Z,97162.22
2024-03-07T23:45:13.333Z,97159.56
2024-03-07T23:47:42.166Z,97146.81
2024-03-07T23:50:11.845Z,97152.16
2024-03-07T23:52:40.750Z,97150.53
2024-03-07T23:55:07.648Z,97151.53
2024-03-07T23:57:34.592Z,97146.63
